createdAt,value
2019-03-12T00:02:01.281Z,31.20
2019-03-12T00:04:28.430Z,31.20
2019-03-12T00:06:55.592Z,31.20
2019-03-12T00:09:22.385Z,31.00
2019-03-12T00:11:49.122Z,31.10
2019-03-12T00:14:17.553Z,31.10
2019-03-12T00:16:44.256Z,31.10
2019-03-12T00:19:11.439Z,31.10
2019-03-12T00:21:38.486Z,31.00
2019-03-12T00:24:05.644Z,31.10
2019-03-12T00:26:33.134Z,31.10
2019-03-12T00:28:59.859Z,31.10
2019-03-12T00:31:26.602Z,31.10
2019-03-12T00:33:53.699Z,31.10
2019-03-12T00:36:20.471Z,31.10
2019-03-12T00:38:47.198Z,31.10
2019-03-12T00:41:14.533Z,31.20
2019-03-12T00:43:41.257Z,31.10
2019-03-12T00:46:08.011Z,31.20
2019-03-12T00:48:34.826Z,31.20
2019-03-12T00:51:02.061Z,31.10
2019-03-12T00:53:28.766Z,31.10
2019-03-12T00:55:55.609Z,31.10
2019-03-12T00:58:23.946Z,31.10
2019-03-12T01:00:50.808Z,31.20
2019-03-12T01:03:17.531Z,31.20
2019-03-12T01:05:44.630Z,31.10
2019-03-12T01:08:11.356Z,31.10
2019-03-12T01:10:38.112Z,31.10
2019-03-12T01:13:14.341Z,31.10
2019-03-12T01:15:41.134Z,31.10
2019-03-12T01:18:08.237Z,31.10
2019-03-12T01:20:35.287Z,31.20
2019-03-12T01:23:02.464Z,31.10
2019-03-12T01:25:29.223Z,31.10
2019-03-12T01:27:55.943Z,31.10
2019-03-12T01:30:22.715Z,31.20
2019-03-12T01:32:49.446Z,31.20
2019-03-12T01:35:16.183Z,31.20
2019-03-12T01:37:42.957Z,31.20
2019-03-12T01:40:13.146Z,31.20
2019-03-12T01:42:39.893Z,31.40
2019-03-12T01:45:11.600Z,31.20
2019-03-12T01:47:38.316Z,31.10
2019-03-12T01:50:08.971Z,31.10
2019-03-12T01:52:36.015Z,31.20
2019-03-12T01:55:07.447Z,31.20
2019-03-12T01:57:34.623Z,31.10
2019-03-12T02:00:02.006Z,31.20
2019-03-12T02:02:28.852Z,31.10
2019-03-12T02:04:55.576Z,31.10
2019-03-12T02:07:22.852Z,31.10
2019-03-12T02:09:49.570Z,31.10
2019-03-12T02:12:16.334Z,31.20
2019-03-12T02:14:43.436Z,31.10
2019-03-12T02:17:10.184Z,31.20
2019-03-12T02:19:37.065Z,31.10
2019-03-12T02:22:03.825Z,31.20
2019-03-12T02:24:30.651Z,31.10
2019-03-12T02:26:59.331Z,31.20
2019-03-12T02:29:26.489Z,31.20
2019-03-12T02:31:53.611Z,31.20
2019-03-12T02:34:20.343Z,31.20
2019-03-12T02:36:47.054Z,31.10
2019-03-12T02:39:13.832Z,31.10
2019-03-12T02:41:40.721Z,31.20
2019-03-12T02:44:07.477Z,31.10
2019-03-12T02:46:34.205Z,31.10
2019-03-12T02:49:00.954Z,31.10
2019-03-12T02:51:27.682Z,31.20
2019-03-12T02:53:54.530Z,31.10
2019-03-12T02:56:21.246Z,31.20
2019-03-12T02:58:48.053Z,31.20
2019-03-12T03:01:14.780Z,31.10
2019-03-12T03:03:41.527Z,31.10
2019-03-12T03:06:10.170Z,31.10
2019-03-12T03:08:37.276Z,31.00
2019-03-12T03:11:04.005Z,31.10
2019-03-12T03:13:30.750Z,31.10
2019-03-12T03:15:57.554Z,31.10
2019-03-12T03:18:24.340Z,31.10
2019-03-12T03:20:52.106Z,31.10
2019-03-12T03:23:18.958Z,31.20
2019-03-12T03:25:45.700Z,31.10
2019-03-12T03:28:12.819Z,31.10
2019-03-12T03:30:39.550Z,31.20
2019-03-12T03:33:06.421Z,31.10
2019-03-12T03:35:33.245Z,31.10
2019-03-12T03:38:00.126Z,31.10
2019-03-12T03:40:27.001Z,31.10
2019-03-12T03:42:53.725Z,31.10
2019-03-12T03:45:20.467Z,31.10
2019-03-12T03:47:47.247Z,31.10
2019-03-12T03:50:16.205Z,31.10
2019-03-12T03:52:42.926Z,31.00
2019-03-12T03:55:18.498Z,31.10
2019-03-12T03:57:45.708Z,31.10
2019-03-12T04:00:16.867Z,31.10
2019-03-12T04:02:43.707Z,31.20
2019-03-12T04:05:10.549Z,31.10
2019-03-12T04:07:37.329Z,31.10
2019-03-12T04:10:09.193Z,31.10
2019-03-12T04:12:35.948Z,31.10
2019-03-12T04:15:04.451Z,31.10
2019-03-12T04:17:31.577Z,31.20
2019-03-12T04:19:58.325Z,31.10
2019-03-12T04:22:25.474Z,31.10
2019-03-12T04:24:52.717Z,31.10
2019-03-12T04:27:19.800Z,31.20
2019-03-12T04:29:46.557Z,31.10
2019-03-12T04:32:13.638Z,31.20
2019-03-12T04:34:40.648Z,31.10
2019-03-12T04:37:07.807Z,31.10
2019-03-12T04:39:34.568Z,31.10
2019-03-12T04:42:01.303Z,31.20
2019-03-12T04:44:28.459Z,31.10
2019-03-12T04:46:55.231Z,31.10
2019-03-12T04:49:21.988Z,31.10
2019-03-12T04:51:48.718Z,31.80
2019-03-12T04:54:15.454Z,31.10
2019-03-12T04:56:42.292Z,31.10
2019-03-12T04:59:09.028Z,31.20
2019-03-12T05:01:36.173Z,31.20
2019-03-12T05:04:03.205Z,31.70
2019-03-12T05:06:30.265Z,31.10
2019-03-12T05:08:57.017Z,31.20
2019-03-12T05:11:23.743Z,31.20
2019-03-12T05:14:20.636Z,31.10
2019-03-12T05:16:47.476Z,31.20
2019-03-12T05:19:14.794Z,31.20
2019-03-12T05:21:44.889Z,31.20
2019-03-12T05:24:10.598Z,31.20
2019-03-12T05:26:37.544Z,31.20
2019-03-12T05:29:04.628Z,31.20
2019-03-12T05:31:31.510Z,31.10
2019-03-12T05:33:58.715Z,31.10
2019-03-12T05:36:25.490Z,31.10
2019-03-12T05:38:55.068Z,31.10
2019-03-12T05:41:22.593Z,31.00
2019-03-12T05:43:49.309Z,31.00
2019-03-12T05:46:16.087Z,31.10
2019-03-12T05:48:42.886Z,31.10
2019-03-12T05:51:09.652Z,31.10
2019-03-12T05:53:49.988Z,31.00
2019-03-12T05:56:17.100Z,30.90
2019-03-12T05:58:44.154Z,30.90
2019-03-12T06:01:11.033Z,30.90
2019-03-12T06:03:37.762Z,30.80
2019-03-12T06:06:04.517Z,30.80
2019-03-12T06:08:31.350Z,30.80
2019-03-12T06:10:58.097Z,31.30
2019-03-12T06:13:24.821Z,30.70
2019-03-12T06:15:53.268Z,30.70
2019-03-12T06:18:20.148Z,30.60
2019-03-12T06:20:46.921Z,30.60
2019-03-12T06:23:15.226Z,30.50
2019-03-12T06:25:42.450Z,31.20
2019-03-12T06:28:09.207Z,30.60
2019-03-12T06:30:37.989Z,30.60
2019-03-12T06:33:06.616Z,30.50
2019-03-12T06:35:47.274Z,30.50
2019-03-12T06:38:15.882Z,30.40
2019-03-12T06:40:56.789Z,30.40
2019-03-12T06:43:34.092Z,30.40
2019-03-12T06:46:07.970Z,31.00
2019-03-12T06:48:52.170Z,30.40
2019-03-12T06:51:33.983Z,30.30
2019-03-12T06:54:03.578Z,30.30
2019-03-12T06:56:47.220Z,30.30
2019-03-12T06:59:30.858Z,30.30
2019-03-12T07:02:02.407Z,30.30
2019-03-12T07:04:49.713Z,30.20
2019-03-12T07:07:21.444Z,30.20
2019-03-12T07:10:00.383Z,30.20
2019-03-12T07:12:27.306Z,30.20
2019-03-12T07:15:04.995Z,30.10
2019-03-12T07:17:48.594Z,30.10
2019-03-12T07:20:15.408Z,30.10
2019-03-12T07:22:56.623Z,30.10
2019-03-12T07:25:38.352Z,30.10
2019-03-12T07:28:05.468Z,30.10
2019-03-12T07:30:36.953Z,30.10
2019-03-12T07:33:14.576Z,30.10
2019-03-12T07:35:49.212Z,30.10
2019-03-12T07:38:22.154Z,30.10
2019-03-12T07:41:05.716Z,30.00
2019-03-12T07:43:33.091Z,30.00
2019-03-12T07:46:01.737Z,30.60
2019-03-12T07:48:32.997Z,30.00
2019-03-12T07:51:01.676Z,30.00
2019-03-12T07:53:36.594Z,30.00
2019-03-12T07:56:22.053Z,29.70
2019-03-12T07:58:51.123Z,29.90
2019-03-12T08:01:28.740Z,29.90
2019-03-12T08:04:01.165Z,29.90
2019-03-12T08:06:32.741Z,29.90
2019-03-12T08:09:01.518Z,29.90
2019-03-12T08:11:32.755Z,29.90
2019-03-12T08:14:01.453Z,29.80
2019-03-12T08:16:32.702Z,29.70
2019-03-12T08:19:18.152Z,29.60
2019-03-12T08:22:02.269Z,29.50
2019-03-12T08:24:46.377Z,29.50
2019-03-12T08:27:15.449Z,29.40
2019-03-12T08:29:45.402Z,29.40
2019-03-12T08:32:12.180Z,29.30
2019-03-12T08:34:50.604Z,29.20
2019-03-12T08:37:19.541Z,29.20
2019-03-12T08:40:01.562Z,29.10
2019-03-12T08:42:53.993Z,29.10
2019-03-12T08:45:28.688Z,29.00
2019-03-12T08:47:57.409Z,29.00
2019-03-12T08:50:39.504Z,29.00
2019-03-12T08:53:08.912Z,28.90
2019-03-12T08:55:50.614Z,28.90
2019-03-12T08:58:21.875Z,28.90
2019-03-12T09:00:50.514Z,28.80
2019-03-12T09:03:35.474Z,28.80
2019-03-12T09:06:10.257Z,28.70
2019-03-12T09:08:38.958Z,28.70
2019-03-12T09:11:11.858Z,28.60
2019-03-12T09:13:46.258Z,28.60
2019-03-12T09:16:15.243Z,28.60
2019-03-12T09:18:51.318Z,28.60
2019-03-12T09:21:18.055Z,29.00
2019-03-12T09:23:46.831Z,28.50
2019-03-12T09:26:13.574Z,28.50
2019-03-12T09:28:42.403Z,28.40
2019-03-12T09:31:20.447Z,28.40
2019-03-12T09:34:04.145Z,28.40
2019-03-12T09:36:51.353Z,28.40
2019-03-12T09:39:22.708Z,28.40
2019-03-12T09:42:08.622Z,28.40
2019-03-12T09:44:41.042Z,28.40
2019-03-12T09:47:08.167Z,28.40
2019-03-12T09:49:35.226Z,28.50
2019-03-12T09:52:10.074Z,28.40
2019-03-12T09:54:39.723Z,28.50
2019-03-12T09:57:11.046Z,28.40
2019-03-12T09:59:56.918Z,28.50
2019-03-12T10:02:25.979Z,28.60
2019-03-12T10:05:09.597Z,28.10
2019-03-12T10:07:54.727Z,28.60
2019-03-12T10:10:36.383Z,28.60
2019-03-12T10:13:16.977Z,28.50
2019-03-12T10:15:46.651Z,28.30
2019-03-12T10:18:19.666Z,28.50
2019-03-12T10:20:51.173Z,29.00
2019-03-12T10:23:36.560Z,28.60
2019-03-12T10:26:12.054Z,28.50
2019-03-12T10:28:39.242Z,28.50
2019-03-12T10:31:26.411Z,28.50
2019-03-12T10:34:11.723Z,28.60
2019-03-12T10:36:49.138Z,28.60
2019-03-12T10:39:54.221Z,28.50
2019-03-12T10:42:36.164Z,28.60
2019-03-12T10:45:12.094Z,28.70
2019-03-12T10:47:40.814Z,28.80
2019-03-12T10:50:08.769Z,28.70
2019-03-12T10:52:35.485Z,28.70
2019-03-12T10:55:13.122Z,28.80
2019-03-12T10:57:33.773Z,28.90
2019-03-12T11:00:06.726Z,28.80
2019-03-12T11:02:33.952Z,28.90
2019-03-12T11:05:00.719Z,29.00
2019-03-12T11:07:27.779Z,29.00
2019-03-12T11:09:54.555Z,28.80
2019-03-12T11:12:22.089Z,28.80
2019-03-12T11:14:49.164Z,28.90
2019-03-12T11:17:15.956Z,29.00
2019-03-12T11:19:42.681Z,29.10
2019-03-12T11:22:09.449Z,28.80
2019-03-12T11:24:37.074Z,29.00
2019-03-12T11:27:04.248Z,29.00
2019-03-12T11:29:30.987Z,29.00
2019-03-12T11:31:58.064Z,29.10
2019-03-12T11:34:24.898Z,29.10
2019-03-12T11:36:51.787Z,29.10
2019-03-12T11:39:18.587Z,29.50
2019-03-12T11:41:45.438Z,29.10
2019-03-12T11:44:12.294Z,29.10
2019-03-12T11:46:44.333Z,29.10
2019-03-12T11:49:07.737Z,29.20
2019-03-12T11:51:34.637Z,29.10
2019-03-12T11:54:01.473Z,29.00
2019-03-12T11:56:28.339Z,29.00
2019-03-12T11:58:55.156Z,28.90
2019-03-12T12:01:22.443Z,29.00
2019-03-12T12:03:49.164Z,29.00
2019-03-12T12:06:16.058Z,29.00
2019-03-12T12:08:42.882Z,29.00
2019-03-12T12:11:09.827Z,29.00
2019-03-12T12:13:36.609Z,29.00
2019-03-12T12:16:03.452Z,29.00
2019-03-12T12:18:30.157Z,29.00
2019-03-12T12:20:57.189Z,29.10
2019-03-12T12:23:24.242Z,29.00
2019-03-12T12:25:51.356Z,29.00
2019-03-12T12:28:18.231Z,29.10
2019-03-12T12:30:44.987Z,29.10
2019-03-12T12:33:11.682Z,29.10
2019-03-12T12:35:38.465Z,29.10
2019-03-12T12:38:05.207Z,29.10
2019-03-12T12:40:31.923Z,29.10
2019-03-12T12:42:58.869Z,29.10
2019-03-12T12:45:32.604Z,29.10
2019-03-12T12:47:59.744Z,29.10
2019-03-12T12:50:26.466Z,29.10
2019-03-12T12:52:53.224Z,29.10
2019-03-12T12:55:20.047Z,29.10
2019-03-12T12:57:46.783Z,29.20
2019-03-12T13:00:23.458Z,29.10
2019-03-12T13:02:50.196Z,29.10
2019-03-12T13:05:17.235Z,29.20
2019-03-12T13:07:44.039Z,29.20
2019-03-12T13:10:25.884Z,29.20
2019-03-12T13:12:53.020Z,29.20
2019-03-12T13:15:20.048Z,29.20
2019-03-12T13:17:46.826Z,29.10
2019-03-12T13:20:13.690Z,28.90
2019-03-12T13:22:40.899Z,28.90
2019-03-12T13:25:13.973Z,29.00
2019-03-12T13:27:42.446Z,28.80
2019-03-12T13:30:20.934Z,28.80
2019-03-12T13:32:47.781Z,29.00
2019-03-12T13:35:16.014Z,29.10
2019-03-12T13:37:43.056Z,29.10
2019-03-12T13:40:15.743Z,28.90
2019-03-12T13:42:42.915Z,29.10
2019-03-12T13:45:17.645Z,29.10
2019-03-12T13:47:45.362Z,29.20
2019-03-12T13:50:12.958Z,29.20
2019-03-12T13:52:39.690Z,28.80
2019-03-12T13:55:12.693Z,28.80
2019-03-12T13:57:39.928Z,29.00
2019-03-12T14:00:25.253Z,28.90
2019-03-12T14:02:52.436Z,29.00
2019-03-12T14:05:19.189Z,29.00
2019-03-12T14:07:45.968Z,28.90
2019-03-12T14:10:23.430Z,28.90
2019-03-12T14:12:57.905Z,28.90
2019-03-12T14:15:32.851Z,29.00
2019-03-12T14:17:59.914Z,29.00
2019-03-12T14:20:51.691Z,28.90
2019-03-12T14:23:40.847Z,28.90
2019-03-12T14:26:07.602Z,29.00
2019-03-12T14:28:34.414Z,28.90
2019-03-12T14:31:01.555Z,29.00
2019-03-12T14:33:28.730Z,29.00
2019-03-12T14:35:55.463Z,28.90
2019-03-12T14:38:22.189Z,28.90
2019-03-12T14:40:48.915Z,28.90
2019-03-12T14:43:16.018Z,28.90
2019-03-12T14:45:49.324Z,28.80
2019-03-12T14:48:43.044Z,28.90
2019-03-12T14:51:24.434Z,28.90
2019-03-12T14:53:56.189Z,29.00
2019-03-12T14:56:26.814Z,29.00
2019-03-12T14:58:53.543Z,29.00
2019-03-12T15:01:20.271Z,29.00
2019-03-12T15:03:46.995Z,28.60
2019-03-12T15:06:14.060Z,29.00
2019-03-12T15:08:40.878Z,29.00
2019-03-12T15:11:07.584Z,28.90
2019-03-12T15:13:34.367Z,28.90
2019-03-12T15:16:01.098Z,28.90
2019-03-12T15:18:28.331Z,29.00
2019-03-12T15:20:55.197Z,28.90
2019-03-12T15:23:22.065Z,28.90
2019-03-12T15:25:48.783Z,28.90
2019-03-12T15:28:15.749Z,29.00
2019-03-12T15:30:42.456Z,28.90
2019-03-12T15:33:09.631Z,29.40
2019-03-12T15:35:37.003Z,28.90
2019-03-12T15:38:04.763Z,29.00
2019-03-12T15:40:32.927Z,28.90
2019-03-12T15:42:59.646Z,28.80
2019-03-12T15:45:26.359Z,28.90
2019-03-12T15:47:53.138Z,28.90
2019-03-12T15:50:21.581Z,29.00
2019-03-12T15:52:48.492Z,29.00
2019-03-12T15:55:15.293Z,28.90
2019-03-12T15:57:42.154Z,29.00
2019-03-12T16:00:14.881Z,29.00
2019-03-12T16:02:41.632Z,29.00
2019-03-12T16:05:08.522Z,29.10
2019-03-12T16:07:35.274Z,29.10
2019-03-12T16:10:06.014Z,29.00
2019-03-12T16:12:33.985Z,29.00
2019-03-12T16:15:00.948Z,29.00
2019-03-12T16:17:29.933Z,29.10
2019-03-12T16:19:57.728Z,29.10
2019-03-12T16:22:24.646Z,29.10
2019-03-12T16:24:54.025Z,29.00
2019-03-12T16:27:21.995Z,29.10
2019-03-12T16:29:48.977Z,29.10
2019-03-12T16:32:16.893Z,29.10
2019-03-12T16:34:43.716Z,29.00
2019-03-12T16:37:10.704Z,29.10
2019-03-12T16:39:37.685Z,29.50
2019-03-12T16:42:05.561Z,29.10
2019-03-12T16:44:33.454Z,29.10
2019-03-12T16:47:00.553Z,29.00
2019-03-12T16:49:27.560Z,29.00
2019-03-12T16:51:54.330Z,29.00
2019-03-12T16:54:21.445Z,29.10
2019-03-12T16:56:48.169Z,29.00
2019-03-12T16:59:14.928Z,29.10
2019-03-12T17:01:41.663Z,29.00
2019-03-12T17:04:08.487Z,29.00
2019-03-12T17:06:35.825Z,29.00
2019-03-12T17:09:04.235Z,29.00
2019-03-12T17:11:31.461Z,28.80
2019-03-12T17:13:58.367Z,29.50
2019-03-12T17:16:25.419Z,29.00
2019-03-12T17:18:52.377Z,29.00
2019-03-12T17:21:19.668Z,29.00
2019-03-12T17:23:46.731Z,28.90
2019-03-12T17:26:14.019Z,29.20
2019-03-12T17:28:40.769Z,29.00
2019-03-12T17:31:07.508Z,29.40
2019-03-12T17:33:34.609Z,29.10
2019-03-12T17:36:01.417Z,28.90
2019-03-12T17:38:28.167Z,29.10
2019-03-12T17:40:55.114Z,29.10
2019-03-12T17:43:21.884Z,29.10
2019-03-12T17:45:49.003Z,29.10
2019-03-12T17:48:15.754Z,29.20
2019-03-12T17:50:42.484Z,29.00
2019-03-12T17:53:09.214Z,29.10
2019-03-12T17:55:36.536Z,29.10
2019-03-12T17:58:03.263Z,29.10
2019-03-12T18:00:35.102Z,29.10
2019-03-12T18:03:02.325Z,29.10
2019-03-12T18:05:29.222Z,29.10
2019-03-12T18:07:56.345Z,29.10
2019-03-12T18:10:23.286Z,29.10
2019-03-12T18:12:50.127Z,29.10
2019-03-12T18:15:19.542Z,29.10
2019-03-12T18:17:46.813Z,29.50
2019-03-12T18:20:20.459Z,29.10
2019-03-12T18:22:47.236Z,28.90
2019-03-12T18:25:33.544Z,29.10
2019-03-12T18:28:00.289Z,29.00
2019-03-12T18:30:27.042Z,29.00
2019-03-12T18:32:55.005Z,29.00
2019-03-12T18:35:21.719Z,29.00
2019-03-12T18:37:48.521Z,28.90
2019-03-12T18:40:18.294Z,29.00
2019-03-12T18:42:45.332Z,29.00
2019-03-12T18:45:20.865Z,29.00
2019-03-12T18:47:47.775Z,29.10
2019-03-12T18:50:17.172Z,29.00
2019-03-12T18:52:44.174Z,28.90
2019-03-12T18:55:37.775Z,29.00
2019-03-12T18:58:08.318Z,28.90
2019-03-12T19:00:38.339Z,28.90
2019-03-12T19:03:05.496Z,29.00
2019-03-12T19:05:32.433Z,29.00
2019-03-12T19:07:59.148Z,29.00
2019-03-12T19:10:25.904Z,29.00
2019-03-12T19:12:52.997Z,29.00
2019-03-12T19:15:19.828Z,29.20
2019-03-12T19:17:46.677Z,29.00
2019-03-12T19:20:16.641Z,29.00
2019-03-12T19:22:44.137Z,29.00
2019-03-12T19:25:25.101Z,29.00
2019-03-12T19:27:59.778Z,29.00
2019-03-12T19:30:20.824Z,29.00
2019-03-12T19:32:56.416Z,29.00
2019-03-12T19:35:25.838Z,29.10
2019-03-12T19:37:52.592Z,29.10
2019-03-12T19:40:41.848Z,29.00
2019-03-12T19:43:08.999Z,29.10
2019-03-12T19:45:35.720Z,29.10
2019-03-12T19:48:02.587Z,29.10
2019-03-12T19:50:29.775Z,29.10
2019-03-12T19:52:56.555Z,29.10
2019-03-12T19:56:01.851Z,29.20
2019-03-12T19:58:28.854Z,29.10
2019-03-12T20:00:55.719Z,29.10
2019-03-12T20:03:22.448Z,29.20
2019-03-12T20:05:49.282Z,29.20
2019-03-12T20:08:16.026Z,29.20
2019-03-12T20:11:08.206Z,29.20
2019-03-12T20:14:23.978Z,29.20
2019-03-12T20:17:21.044Z,29.20
2019-03-12T20:20:34.790Z,29.20
2019-03-12T20:23:27.988Z,29.30
2019-03-12T20:26:52.033Z,29.30
2019-03-12T20:30:04.441Z,29.30
2019-03-12T20:32:59.841Z,29.30
2019-03-12T20:36:15.614Z,29.30
2019-03-12T20:39:31.200Z,29.30
2019-03-12T20:42:40.101Z,29.30
2019-03-12T20:45:33.411Z,29.40
2019-03-12T20:48:42.387Z,29.30
2019-03-12T20:51:49.865Z,29.40
2019-03-12T20:54:55.377Z,29.40
2019-03-12T20:58:05.568Z,29.40
2019-03-12T21:01:27.891Z,29.40
2019-03-12T21:04:49.843Z,29.40
2019-03-12T21:07:41.655Z,29.40
2019-03-12T21:10:44.190Z,29.40
2019-03-12T21:13:16.703Z,29.40
2019-03-12T21:16:07.800Z,29.50
2019-03-12T21:19:09.869Z,29.50
2019-03-12T21:22:09.279Z,29.50
2019-03-12T21:25:01.423Z,29.50
2019-03-12T21:27:55.057Z,29.50
2019-03-12T21:30:26.875Z,29.50
2019-03-12T21:32:53.608Z,29.50
2019-03-12T21:35:20.523Z,29.60
2019-03-12T21:37:47.280Z,29.50
2019-03-12T21:40:14.543Z,29.50
2019-03-12T21:42:41.885Z,29.60
2019-03-12T21:45:10.182Z,29.50
2019-03-12T21:47:36.886Z,29.50
2019-03-12T21:50:07.559Z,29.50
2019-03-12T21:52:34.882Z,29.60
2019-03-12T21:55:03.473Z,29.50
2019-03-12T21:57:30.231Z,29.50
2019-03-12T21:59:56.991Z,29.60
2019-03-12T22:02:24.088Z,29.50
2019-03-12T22:04:51.042Z,29.50
2019-03-12T22:07:17.862Z,29.50
2019-03-12T22:09:44.670Z,29.50
2019-03-12T22:12:11.370Z,29.50
2019-03-12T22:14:38.180Z,29.50
2019-03-12T22:17:04.990Z,29.50
2019-03-12T22:19:31.727Z,29.50
2019-03-12T22:22:10.139Z,29.50
2019-03-12T22:24:37.270Z,29.50
2019-03-12T22:27:04.092Z,29.50
2019-03-12T22:29:30.833Z,29.50
2019-03-12T22:31:57.576Z,29.50
2019-03-12T22:34:24.331Z,29.50
2019-03-12T22:36:51.092Z,29.50
2019-03-12T22:39:17.909Z,29.50
2019-03-12T22:41:45.224Z,29.50
2019-03-12T22:44:13.299Z,29.50
2019-03-12T22:46:40.180Z,29.50
2019-03-12T22:49:07.083Z,29.50
2019-03-12T22:51:34.776Z,29.50
2019-03-12T22:54:01.931Z,29.50
2019-03-12T22:56:28.973Z,29.60
2019-03-12T22:58:56.430Z,29.50
2019-03-12T23:01:23.445Z,29.50
2019-03-12T23:03:50.294Z,29.50
2019-03-12T23:06:17.080Z,29.80
2019-03-12T23:08:43.848Z,29.60
2019-03-12T23:11:10.598Z,29.60
2019-03-12T23:13:37.313Z,29.60
2019-03-12T23:16:04.174Z,29.50
2019-03-12T23:18:31.015Z,29.60
2019-03-12T23:20:57.762Z,29.70
2019-03-12T23:23:24.476Z,29.60
2019-03-12T23:25:51.348Z,29.60
2019-03-12T23:28:18.083Z,29.60
2019-03-12T23:30:44.862Z,29.60
2019-03-12T23:33:11.744Z,29.60
2019-03-12T23:35:38.511Z,29.60
2019-03-12T23:38:05.577Z,29.60
2019-03-12T23:40:32.491Z,29.60
2019-03-12T23:42:59.340Z,29.60
2019-03-12T23:45:26.088Z,29.70
2019-03-12T23:47:52.955Z,29.70
2019-03-12T23:50:20.026Z,29.70
2019-03-12T23:52:47.123Z,29.70
2019-03-12T23:55:15.465Z,29.70
2019-03-12T23:57:42.209Z,29.70
